< Typhoon 195225 1952 Season Typhoon 195227 >
Typhoon 195226 (GLORIA)
General InformationTrack Information on Google Maps || Disaster Info.ResourceGoogle EarthGE AnimationAtom FeedGeoJSON
Detalied Best Track (Time Zone = UTC)
Year Month Day Hour Lat. Long. Pressure (hPa) Wind (kt) Class Image Chart
1952 12 18 00 7.6 141.0 996 0 9 -- Chart
1952 12 18 06 8.1 139.1 996 0 9 -- Chart
1952 12 18 12 8.5 137.5 996 0 9 -- Chart
1952 12 18 18 8.7 136.5 990 0 9 -- Chart
1952 12 19 00 8.9 135.5 990 0 9 -- Chart
1952 12 19 06 9.3 134.7 990 0 9 -- Chart
1952 12 19 12 9.8 133.3 990 0 9 -- Chart
1952 12 19 18 10.4 131.5 990 0 9 -- Chart
1952 12 20 00 11.5 129.5 990 0 9 -- Chart
1952 12 20 06 11.9 128.0 990 0 9 -- Chart
1952 12 20 12 12.3 126.2 990 0 9 -- Chart
1952 12 20 18 12.3 125.5 990 0 9 -- Chart
1952 12 21 00 12.3 124.7 990 0 9 -- Chart
1952 12 21 06 12.3 123.6 990 0 9 -- Chart
1952 12 21 12 12.3 122.8 990 0 9 -- Chart
1952 12 21 18 12.5 121.5 990 0 9 -- Chart
1952 12 22 00 12.6 119.5 990 0 9 -- Chart
1952 12 22 06 12.8 118.6 990 0 9 -- Chart
1952 12 22 12 12.9 117.0 990 0 9 -- Chart
1952 12 22 18 13.0 116.0 990 0 9 -- Chart
1952 12 23 00 13.5 115.1 990 0 9 -- Chart
1952 12 23 06 13.6 113.9 990 0 9 -- Chart
1952 12 23 12 13.8 112.5 990 0 9 -- Chart
1952 12 23 18 13.9 111.5 990 0 9 -- Chart
1952 12 24 00 14.0 110.5 990 0 9 -- Chart
1952 12 24 06 14.1 109.9 990 0 9 -- Chart
1952 12 24 12 14.3 109.0 990 0 9 -- Chart
Japan Meteorological Agency Best Track Data | Correction Date : 1990-10-17
< Typhoon 195225 1952 Season Typhoon 195227 >

Help